Observation data for Denver City on 06/21/2019      Previous  Date  Next       Current Mesonet Observations  Soil Data  Daily Summary Page  Observations in Plain Language
KDVS 210500Z 22010KT 24/M03 A2984 RMK A01 T02351028  RH  017%=      5-min Rain = 0
KDVS 210505Z 22010KT 24/M03 A2983 RMK A01 T02361032  RH  017%=      5-min Rain = 0
KDVS 210510Z 22010KT 24/M03 A2983 RMK A01 T02361032  RH  017%=      5-min Rain = 0
KDVS 210515Z 22009KT 23/M03 A2983 RMK A01 T02341032  RH  017%=      5-min Rain = 0
KDVS 210520Z 22009KT 23/M03 A2983 RMK A01 T02321032  RH  017%=      5-min Rain = 0
KDVS 210525Z 22009KT 23/M03 A2983 RMK A01 T02311032  RH  017%=      5-min Rain = 0
KDVS 210530Z 22010KT 23/M03 A2983 RMK A01 T02301032  RH  017%=      5-min Rain = 0
KDVS 210535Z 22009KT 23/M03 A2983 RMK A01 T02301032  RH  017%=      5-min Rain = 0
KDVS 210540Z 22009KT 23/M03 A2983 RMK A01 T02291031  RH  017%=      5-min Rain = 0
KDVS 210545Z 22009KT 23/M03 A2983 RMK A01 T02281031  RH  018%=      5-min Rain = 0
KDVS 210550Z 22009KT 23/M03 A2983 RMK A01 T02261031  RH  018%=      5-min Rain = 0
KDVS 210555Z 22008KT 22/M03 A2983 RMK A01 T02231027  RH  019%=      5-min Rain = 0
KDVS 210600Z 22008KT 22/M02 A2983 RMK A01 T02191022  RH  020%=      5-min Rain = 0
KDVS 210605Z 21008KT 22/M02 A2983 RMK A01 T02161019  RH  021%=      5-min Rain = 0
KDVS 210610Z 21008KT 22/M02 A2983 RMK A01 T02151021  RH  021%=      5-min Rain = 0
KDVS 210615Z 22007KT 21/M02 A2983 RMK A01 T02111016  RH  022%=      5-min Rain = 0
KDVS 210620Z 22008KT 21/M02 A2983 RMK A01 T02091017  RH  022%=      5-min Rain = 0
KDVS 210625Z 22008KT 21/M02 A2982 RMK A01 T02101020  RH  022%=      5-min Rain = 0
KDVS 210630Z 22007KT 21/M02 A2982 RMK A01 T02081018  RH  022%=      5-min Rain = 0
KDVS 210635Z 21007KT 20/M01 A2982 RMK A01 T02041013  RH  023%=      5-min Rain = 0
KDVS 210640Z 21007KT 20/M01 A2982 RMK A01 T02001009  RH  025%=      5-min Rain = 0
KDVS 210645Z 22008KT 20/M01 A2982 RMK A01 T01971008  RH  025%=      5-min Rain = 0
KDVS 210650Z 22008KT 20/M01 A2982 RMK A01 T01991011  RH  025%=      5-min Rain = 0
KDVS 210655Z 22008KT 20/M01 A2982 RMK A01 T02001012  RH  024%=      5-min Rain = 0
KDVS 210700Z 22009KT 20/M02 A2982 RMK A01 T02031016  RH  023%=      5-min Rain = 0
KDVS 210705Z 22009KT 21/M02 A2982 RMK A01 T02061021  RH  022%=      5-min Rain = 0
KDVS 210710Z 21008KT 21/M02 A2982 RMK A01 T02081023  RH  021%=      5-min Rain = 0
KDVS 210715Z 21008KT 21/M03 A2982 RMK A01 T02081025  RH  021%=      5-min Rain = 0
KDVS 210720Z 22008KT 21/M03 A2982 RMK A01 T02091026  RH  021%=      5-min Rain = 0
KDVS 210725Z 22009KT 21/M03 A2982 RMK A01 T02101032  RH  020%=      5-min Rain = 0
KDVS 210730Z 21010KT 21/M04 A2982 RMK A01 T02121037  RH  019%=      5-min Rain = 0
KDVS 210735Z 22009KT 21/M04 A2982 RMK A01 T02111035  RH  019%=      5-min Rain = 0
KDVS 210740Z 22009KT 21/M03 A2982 RMK A01 T02081033  RH  020%=      5-min Rain = 0
KDVS 210745Z 22008KT 21/M03 A2982 RMK A01 T02061033  RH  020%=      5-min Rain = 0
KDVS 210750Z 22007KT 20/M03 A2982 RMK A01 T02031030  RH  021%=      5-min Rain = 0
KDVS 210755Z 22008KT 20/M03 A2982 RMK A01 T02001027  RH  022%=      5-min Rain = 0
KDVS 210800Z 22008KT 20/M03 A2982 RMK A01 T01981027  RH  022%=      5-min Rain = 0
KDVS 210805Z 22008KT 20/M03 A2982 RMK A01 T01971026  RH  022%=      5-min Rain = 0
KDVS 210810Z 22007KT 20/M02 A2982 RMK A01 T01951022  RH  023%=      5-min Rain = 0
KDVS 210815Z 22008KT 19/M02 A2982 RMK A01 T01931021  RH  024%=      5-min Rain = 0
KDVS 210820Z 23008KT 19/M02 A2982 RMK A01 T01921021  RH  024%=      5-min Rain = 0
KDVS 210825Z 23008KT 19/M02 A2982 RMK A01 T01921023  RH  023%=      5-min Rain = 0
KDVS 210830Z 23007KT 19/M02 A2982 RMK A01 T01911021  RH  024%=      5-min Rain = 0
KDVS 210835Z 23007KT 19/M02 A2982 RMK A01 T01871015  RH  026%=      5-min Rain = 0
KDVS 210840Z 20007KT 18/M01 A2982 RMK A01 T01841012  RH  027%=      5-min Rain = 0
KDVS 210845Z 17010KT 17/M01 A2982 RMK A01 T01731006  RH  030%=      5-min Rain = 0
KDVS 210850Z 18009KT 18/M02 A2983 RMK A01 T01791024  RH  025%=      5-min Rain = 0
KDVS 210855Z 19009KT 18/M03 A2983 RMK A01 T01831029  RH  024%=      5-min Rain = 0
KDVS 210900Z 19009KT 19/M03 A2983 RMK A01 T01881032  RH  022%=      5-min Rain = 0
KDVS 210905Z 19009KT 19/M03 A2983 RMK A01 T01901031  RH  022%=      5-min Rain = 0
KDVS 210910Z 19010KT 19/M02 A2983 RMK A01 T01921023  RH  023%=      5-min Rain = 0
KDVS 210915Z 20010KT 19/M00 A2983 RMK A01 T01931003  RH  027%=      5-min Rain = 0
KDVS 210920Z 20010KT 19/02 A2983 RMK A01 T01920015  RH  031%=      5-min Rain = 0
KDVS 210925Z 20011KT 19/04 A2983 RMK A01 T01940041  RH  037%=      5-min Rain = 0
KDVS 210930Z 20010KT 20/06 A2983 RMK A01 T01950057  RH  042%=      5-min Rain = 0
KDVS 210935Z 20010KT 20/07 A2983 RMK A01 T01960068  RH  045%=      5-min Rain = 0
KDVS 210940Z 20010KT 20/08 A2984 RMK A01 T01950076  RH  047%=      5-min Rain = 0
KDVS 210945Z 19010KT 19/08 A2984 RMK A01 T01940081  RH  049%=      5-min Rain = 0
KDVS 210950Z 20010KT 19/08 A2984 RMK A01 T01920083  RH  050%=      5-min Rain = 0
KDVS 210955Z 20009KT 19/08 A2984 RMK A01 T01900084  RH  052%=      5-min Rain = 0
KDVS 211005Z 21010KT 19/09 A2984 RMK A01 T01870088  RH  054%=      5-min Rain = 0
KDVS 211010Z 21009KT 19/09 A2984 RMK A01 T01880092  RH  055%=      5-min Rain = 0
KDVS 211015Z 20010KT 19/10 A2984 RMK A01 T01870096  RH  057%=      5-min Rain = 0
KDVS 211020Z 20010KT 19/10 A2985 RMK A01 T01860099  RH  059%=      5-min Rain = 0
KDVS 211025Z 21009KT 19/10 A2985 RMK A01 T01860103  RH  061%=      5-min Rain = 0
KDVS 211030Z 20009KT 19/11 A2985 RMK A01 T01860107  RH  062%=      5-min Rain = 0
KDVS 211035Z 20011KT 19/11 A2985 RMK A01 T01900111  RH  062%=      5-min Rain = 0
KDVS 211040Z 21010KT 19/11 A2985 RMK A01 T01930113  RH  062%=      5-min Rain = 0
KDVS 211045Z 21009KT 19/11 A2985 RMK A01 T01920114  RH  063%=      5-min Rain = 0
KDVS 211050Z 20009KT 19/12 A2985 RMK A01 T01910115  RH  063%=      5-min Rain = 0
KDVS 211055Z 20010KT 19/12 A2985 RMK A01 T01900115  RH  064%=      5-min Rain = 0
KDVS 211100Z 21009KT 19/11 A2986 RMK A01 T01890114  RH  064%=      5-min Rain = 0
KDVS 211105Z 22007KT 19/11 A2986 RMK A01 T01880113  RH  064%=      5-min Rain = 0
KDVS 211110Z 21008KT 19/11 A2986 RMK A01 T01870112  RH  064%=      5-min Rain = 0
KDVS 211115Z 21008KT 19/11 A2986 RMK A01 T01860112  RH  064%=      5-min Rain = 0
KDVS 211120Z 21008KT 19/11 A2986 RMK A01 T01850111  RH  064%=      5-min Rain = 0
KDVS 211125Z 21009KT 18/11 A2986 RMK A01 T01820111  RH  065%=      5-min Rain = 0
KDVS 211130Z 21009KT 18/11 A2987 RMK A01 T01810110  RH  065%=      5-min Rain = 0
KDVS 211135Z 21009KT 18/11 A2987 RMK A01 T01810109  RH  065%=      5-min Rain = 0
KDVS 211140Z 21009KT 18/11 A2987 RMK A01 T01790109  RH  066%=      5-min Rain = 0
KDVS 211145Z 21008KT 18/11 A2987 RMK A01 T01770108  RH  066%=      5-min Rain = 0
KDVS 211150Z 21008KT 18/11 A2987 RMK A01 T01760108  RH  067%=      5-min Rain = 0
KDVS 211155Z 21008KT 18/11 A2988 RMK A01 T01750108  RH  067%=      5-min Rain = 0
KDVS 211200Z 21008KT 18/11 A2988 RMK A01 T01750108  RH  067%=      5-min Rain = 0
KDVS 211205Z 20008KT 18/11 A2988 RMK A01 T01750108  RH  067%=      5-min Rain = 0
KDVS 211210Z 21009KT 18/11 A2988 RMK A01 T01780108  RH  066%=      5-min Rain = 0
KDVS 211215Z 21008KT 18/11 A2988 RMK A01 T01810107  RH  064%=      5-min Rain = 0
KDVS 211220Z 21008KT 18/11 A2988 RMK A01 T01820107  RH  064%=      5-min Rain = 0
KDVS 211225Z 22008KT 19/11 A2988 RMK A01 T01860107  RH  062%=      5-min Rain = 0
KDVS 211230Z 21008KT 19/11 A2988 RMK A01 T01890107  RH  061%=      5-min Rain = 0
KDVS 211235Z 21009KT 19/11 A2988 RMK A01 T01920108  RH  060%=      5-min Rain = 0
KDVS 211240Z 21009KT 19/11 A2989 RMK A01 T01930109  RH  060%=      5-min Rain = 0
KDVS 211245Z 22008KT 20/11 A2989 RMK A01 T01960109  RH  059%=      5-min Rain = 0
KDVS 211250Z 22009KT 20/11 A2989 RMK A01 T01990108  RH  058%=      5-min Rain = 0
KDVS 211255Z 22009KT 20/11 A2989 RMK A01 T02020108  RH  056%=      5-min Rain = 0
KDVS 211300Z 22008KT 21/11 A2989 RMK A01 T02050107  RH  055%=      5-min Rain = 0
KDVS 211305Z 21009KT 21/11 A2989 RMK A01 T02090107  RH  054%=      5-min Rain = 0
KDVS 211310Z 21008KT 21/11 A2989 RMK A01 T02130107  RH  053%=      5-min Rain = 0
KDVS 211315Z 21008KT 22/11 A2989 RMK A01 T02170109  RH  052%=      5-min Rain = 0
KDVS 211320Z 21008KT 22/11 A2989 RMK A01 T02190110  RH  052%=      5-min Rain = 0
KDVS 211325Z 20009KT 22/11 A299 RMK A01 T02210111  RH  051%=      5-min Rain = 0
KDVS 211330Z 20009KT 22/11 A299 RMK A01 T02220109  RH  050%=      5-min Rain = 0
KDVS 211335Z 21009KT 23/11 A299 RMK A01 T02250107  RH  049%=      5-min Rain = 0
KDVS 211340Z 22009KT 23/11 A299 RMK A01 T02280105  RH  047%=      5-min Rain = 0
KDVS 211345Z 22008KT 23/10 A299 RMK A01 T02340102  RH  045%=      5-min Rain = 0
KDVS 211350Z 22010KT 24/09 A299 RMK A01 T02400093  RH  041%=      5-min Rain = 0
KDVS 211355Z 22010KT 25/09 A299 RMK A01 T02450085  RH  037%=      5-min Rain = 0
KDVS 211400Z 22009KT 25/08 A299 RMK A01 T02490083  RH  036%=      5-min Rain = 0
KDVS 211405Z 22010KT 25/08 A299 RMK A01 T02510077  RH  034%=      5-min Rain = 0
KDVS 211410Z 22009KT 26/07 A299 RMK A01 T02550073  RH  032%=      5-min Rain = 0
KDVS 211415Z 23007KT 26/07 A299 RMK A01 T02610070  RH  030%=      5-min Rain = 0
KDVS 211420Z 23009KT 27/06 A299 RMK A01 T02660059  RH  027%=      5-min Rain = 0
KDVS 211425Z 23008KT 27/06 A299 RMK A01 T02700057  RH  026%=      5-min Rain = 0
KDVS 211430Z 22008KT 28/05 A299 RMK A01 T02750048  RH  024%=      5-min Rain = 0
KDVS 211435Z 22009KT 28/04 A2991 RMK A01 T02780040  RH  022%=      5-min Rain = 0
KDVS 211440Z 23009KT 28/03 A2991 RMK A01 T02830032  RH  020%=      5-min Rain = 0
KDVS 211445Z 22009KT 29/03 A2991 RMK A01 T02880029  RH  019%=      5-min Rain = 0
KDVS 211450Z 22010KT 29/02 A2991 RMK A01 T02900020  RH  018%=      5-min Rain = 0
KDVS 211455Z 22011KT 29/01 A2991 RMK A01 T02930011  RH  017%=      5-min Rain = 0
KDVS 211500Z 22012KT 30/00 A2991 RMK A01 T02950002  RH  015%=      5-min Rain = 0
KDVS 211505Z 21008KT 30/03 A2991 RMK A01 T02980028  RH  018%=      5-min Rain = 0
KDVS 211510Z 21010KT 30/01 A2991 RMK A01 T02990014  RH  016%=      5-min Rain = 0
KDVS 211515Z 22009KT 30/02 A2991 RMK A01 T03010018  RH  017%=      5-min Rain = 0
KDVS 211520Z 22009KT 30/01 A2991 RMK A01 T03030012  RH  016%=      5-min Rain = 0
KDVS 211525Z 22009KT 31/01 A2991 RMK A01 T03050014  RH  016%=      5-min Rain = 0
KDVS 211530Z 23009KT 31/00 A2991 RMK A01 T03070004  RH  014%=      5-min Rain = 0
KDVS 211535Z 23010KT 31/M01 A2991 RMK A01 T03111010  RH  013%=      5-min Rain = 0
KDVS 211540Z 23009KT 31/M01 A2991 RMK A01 T03131012  RH  012%=      5-min Rain = 0
KDVS 211545Z 23010KT 32/M02 A2991 RMK A01 T03151018  RH  012%=      5-min Rain = 0
KDVS 211550Z 23009KT 32/M02 A2991 RMK A01 T03151015  RH  012%=      5-min Rain = 0
KDVS 211555Z 23010KT 32/M02 A2991 RMK A01 T03191016  RH  012%=      5-min Rain = 0
KDVS 211600Z 23008KT 32/M03 A299 RMK A01 T03211027  RH  011%=      5-min Rain = 0
KDVS 211605Z 23009G15KT 32/M03 A299 RMK A01 T03241030  RH  010%=      5-min Rain = 0
KDVS 211610Z 23009KT 33/M03 A299 RMK A01 T03271033  RH  010%=      5-min Rain = 0
KDVS 211615Z 23010KT 33/M04 A299 RMK A01 T03281038  RH  009%=      5-min Rain = 0
KDVS 211620Z 23008KT 33/M04 A299 RMK A01 T03281040  RH  009%=      5-min Rain = 0
KDVS 211625Z 23009KT 33/M05 A299 RMK A01 T03311048  RH  009%=      5-min Rain = 0
KDVS 211630Z 22009KT 33/M04 A299 RMK A01 T03331044  RH  009%=      5-min Rain = 0
KDVS 211635Z 22008G13KT 34/M05 A299 RMK A01 T03351046  RH  008%=      5-min Rain = 0
KDVS 211640Z 23011G17KT 34/M06 A299 RMK A01 T03361056  RH  008%=      5-min Rain = 0
KDVS 211645Z 23007KT 34/M05 A299 RMK A01 T03361053  RH  008%=      5-min Rain = 0
KDVS 211650Z 24007G12KT 34/M06 A299 RMK A01 T03381056  RH  008%=      5-min Rain = 0
KDVS 211655Z 25009G22KT 34/M05 A299 RMK A01 T03411051  RH  008%=      5-min Rain = 0
KDVS 211700Z 25009KT 34/M05 A299 RMK A01 T03411051  RH  008%=      5-min Rain = 0
KDVS 211705Z 23008KT 34/M05 A299 RMK A01 T03421051  RH  008%=      5-min Rain = 0
KDVS 211710Z 25009KT 34/M05 A299 RMK A01 T03421050  RH  008%=      5-min Rain = 0
KDVS 211715Z 24009KT 34/M05 A299 RMK A01 T03421050  RH  008%=      5-min Rain = 0
KDVS 211720Z 21010KT 34/M05 A299 RMK A01 T03441046  RH  008%=      5-min Rain = 0
KDVS 211725Z 22011G16KT 34/M05 A299 RMK A01 T03431048  RH  008%=      5-min Rain = 0
KDVS 211730Z 24009KT 34/M05 A299 RMK A01 T03431050  RH  008%=      5-min Rain = 0
KDVS 211735Z 23004G16KT 34/M05 A299 RMK A01 T03421046  RH  008%=      5-min Rain = 0
KDVS 211740Z 24011G16KT 35/M05 A299 RMK A01 T03461048  RH  008%=      5-min Rain = 0
KDVS 211745Z 25010G16KT 35/M05 A299 RMK A01 T03461047  RH  008%=      5-min Rain = 0
KDVS 211750Z 25013G19KT 35/M05 A2989 RMK A01 T03481045  RH  008%=      5-min Rain = 0
KDVS 211755Z 24010G16KT 35/M05 A299 RMK A01 T03481047  RH  008%=      5-min Rain = 0
KDVS 211800Z 24009G16KT 35/M04 A2989 RMK A01 T03491040  RH  008%=      5-min Rain = 0
KDVS 211805Z 22013KT 35/M04 A2989 RMK A01 T03511042  RH  008%=      5-min Rain = 0
KDVS 211810Z 24008KT 35/M04 A2989 RMK A01 T03511041  RH  008%=      5-min Rain = 0
KDVS 211815Z 21012G21KT 35/M04 A2989 RMK A01 T03511039  RH  008%=      5-min Rain = 0
KDVS 211820Z 20007KT 35/M03 A2989 RMK A01 T03521033  RH  008%=      5-min Rain = 0
KDVS 211825Z 24011G16KT 35/M04 A2989 RMK A01 T03541039  RH  008%=      5-min Rain = 0
KDVS 211830Z 23010KT 35/M04 A2989 RMK A01 T03501039  RH  008%=      5-min Rain = 0
KDVS 211835Z 23011G18KT 35/M04 A2989 RMK A01 T03491038  RH  008%=      5-min Rain = 0
KDVS 211840Z 24009G18KT 35/M04 A2988 RMK A01 T03501037  RH  008%=      5-min Rain = 0
KDVS 211845Z 24012KT 35/M04 A2988 RMK A01 T03521037  RH  008%=      5-min Rain = 0
KDVS 211850Z 22013G18KT 35/M04 A2988 RMK A01 T03531037  RH  008%=      5-min Rain = 0
KDVS 211855Z 24010G15KT 35/M04 A2988 RMK A01 T03511039  RH  008%=      5-min Rain = 0
KDVS 211900Z 24011G17KT 35/M04 A2988 RMK A01 T03521035  RH  008%=      5-min Rain = 0
KDVS 211905Z 24012G21KT 36/M03 A2988 RMK A01 T03551033  RH  008%=      5-min Rain = 0
KDVS 211910Z 24011G16KT 36/M03 A2988 RMK A01 T03551034  RH  008%=      5-min Rain = 0
KDVS 211915Z 23011KT 36/M03 A2988 RMK A01 T03571032  RH  008%=      5-min Rain = 0
KDVS 211920Z 25009G17KT 36/M03 A2988 RMK A01 T03551034  RH  008%=      5-min Rain = 0
KDVS 211925Z 21008G13KT 35/M03 A2987 RMK A01 T03531032  RH  008%=      5-min Rain = 0
KDVS 211930Z 22008G14KT 35/M03 A2987 RMK A01 T03531030  RH  009%=      5-min Rain = 0
KDVS 211935Z 25009G14KT 36/M03 A2987 RMK A01 T03571030  RH  008%=      5-min Rain = 0
KDVS 211940Z 25006G11KT 36/M04 A2987 RMK A01 T03551038  RH  008%=      5-min Rain = 0
KDVS 211945Z 23006KT 35/M03 A2986 RMK A01 T03541033  RH  008%=      5-min Rain = 0
KDVS 211950Z 24010G16KT 36/M03 A2986 RMK A01 T03601027  RH  008%=      5-min Rain = 0
KDVS 211955Z 23013G21KT 36/M03 A2986 RMK A01 T03631033  RH  008%=      5-min Rain = 0
KDVS 212000Z 20010G16KT 36/M03 A2986 RMK A01 T03621030  RH  008%=      5-min Rain = 0
KDVS 212005Z 22010KT 36/M03 A2986 RMK A01 T03611030  RH  008%=      5-min Rain = 0
KDVS 212010Z 23008G13KT 36/M03 A2985 RMK A01 T03601032  RH  008%=      5-min Rain = 0
KDVS 212015Z 23013G18KT 36/M03 A2985 RMK A01 T03631030  RH  008%=      5-min Rain = 0
KDVS 212020Z 21011G20KT 37/M02 A2985 RMK A01 T03651022  RH  009%=      5-min Rain = 0
KDVS 212025Z 20013G20KT 37/M02 A2985 RMK A01 T03691024  RH  008%=      5-min Rain = 0
KDVS 212030Z 20012KT 37/M03 A2985 RMK A01 T03651025  RH  008%=      5-min Rain = 0
KDVS 212035Z 20013KT 37/M03 A2985 RMK A01 T03661026  RH  008%=      5-min Rain = 0
KDVS 212040Z 20012G20KT 36/M03 A2985 RMK A01 T03641027  RH  008%=      5-min Rain = 0
KDVS 212045Z 21010KT 37/M03 A2984 RMK A01 T03671025  RH  008%=      5-min Rain = 0
KDVS 212050Z 21008KT 36/M03 A2984 RMK A01 T03631029  RH  008%=      5-min Rain = 0
KDVS 212055Z 20007G14KT 37/M02 A2984 RMK A01 T03671022  RH  009%=      5-min Rain = 0
KDVS 212100Z 22010G18KT 37/M03 A2984 RMK A01 T03681026  RH  008%=      5-min Rain = 0
KDVS 212105Z 20015G21KT 37/M02 A2984 RMK A01 T03721020  RH  008%=      5-min Rain = 0
KDVS 212110Z 22013KT 37/M02 A2983 RMK A01 T03741024  RH  008%=      5-min Rain = 0
KDVS 212115Z 22013G19KT 37/M03 A2983 RMK A01 T03731026  RH  008%=      5-min Rain = 0
KDVS 212120Z 21013G21KT 37/M03 A2983 RMK A01 T03711028  RH  008%=      5-min Rain = 0
KDVS 212125Z 22015KT 37/M03 A2983 RMK A01 T03711029  RH  008%=      5-min Rain = 0
KDVS 212130Z 23012G17KT 37/M03 A2983 RMK A01 T03721027  RH  008%=      5-min Rain = 0
KDVS 212135Z 20016G24KT 37/M02 A2982 RMK A01 T03711019  RH  009%=      5-min Rain = 0
KDVS 212140Z 20016G23KT 37/M02 A2982 RMK A01 T03711017  RH  009%=      5-min Rain = 0
KDVS 212145Z 20019G26KT 37/M02 A2982 RMK A01 T03721015  RH  009%=      5-min Rain = 0
KDVS 212150Z 20016G24KT 37/M01 A2982 RMK A01 T03741014  RH  009%=      5-min Rain = 0
KDVS 212155Z 21016KT 37/M02 A2982 RMK A01 T03711021  RH  008%=      5-min Rain = 0
KDVS 212200Z 20013G18KT 37/M02 A2982 RMK A01 T03731015  RH  009%=      5-min Rain = 0
KDVS 212205Z 21019G24KT 37/M02 A2982 RMK A01 T03731018  RH  008%=      5-min Rain = 0
KDVS 212210Z 21017KT 37/M02 A2981 RMK A01 T03701020  RH  008%=      5-min Rain = 0
KDVS 212215Z 23015KT 37/M02 A2981 RMK A01 T03711022  RH  008%=      5-min Rain = 0
KDVS 212220Z 22016G23KT 37/M02 A2981 RMK A01 T03711021  RH  008%=      5-min Rain = 0
KDVS 212225Z 22016G21KT 37/M02 A2981 RMK A01 T03701022  RH  008%=      5-min Rain = 0
KDVS 212230Z 21015G22KT 37/M02 A2981 RMK A01 T03691020  RH  009%=      5-min Rain = 0
KDVS 212235Z 22014G21KT 37/M02 A2981 RMK A01 T03711016  RH  009%=      5-min Rain = 0
KDVS 212240Z 22016G22KT 37/M02 A2981 RMK A01 T03681022  RH  008%=      5-min Rain = 0
KDVS 212245Z 20014KT 37/M02 A298 RMK A01 T03691017  RH  009%=      5-min Rain = 0
KDVS 212250Z 21011KT 37/M02 A298 RMK A01 T03671020  RH  009%=      5-min Rain = 0
KDVS 212255Z 22009KT 37/M02 A298 RMK A01 T03671020  RH  009%=      5-min Rain = 0
KDVS 212300Z 20009KT 37/M02 A298 RMK A01 T03681016  RH  009%=      5-min Rain = 0
KDVS 212305Z 20009G16KT 37/M01 A2979 RMK A01 T03691013  RH  009%=      5-min Rain = 0
KDVS 212310Z 20009G17KT 37/M01 A2979 RMK A01 T03691010  RH  009%=      5-min Rain = 0
KDVS 212315Z 21015G25KT 37/M01 A2979 RMK A01 T03691007  RH  009%=      5-min Rain = 0
KDVS 212320Z 23016G24KT 37/M02 A2979 RMK A01 T03701015  RH  009%=      5-min Rain = 0
KDVS 212325Z 22011G19KT 37/M01 A2978 RMK A01 T03711013  RH  009%=      5-min Rain = 0
KDVS 212330Z 21015G22KT 37/M01 A2978 RMK A01 T03691013  RH  009%=      5-min Rain = 0
KDVS 212335Z 21016G21KT 37/M01 A2978 RMK A01 T03671011  RH  009%=      5-min Rain = 0
KDVS 212340Z 21015G20KT 37/M01 A2978 RMK A01 T03671006  RH  010%=      5-min Rain = 0
KDVS 212345Z 23015KT 37/M01 A2978 RMK A01 T03661010  RH  009%=      5-min Rain = 0
KDVS 212350Z 22013G20KT 37/M01 A2978 RMK A01 T03661009  RH  009%=      5-min Rain = 0
KDVS 212355Z 22016G22KT 37/M01 A2978 RMK A01 T03651008  RH  010%=      5-min Rain = 0
KDVS 220000Z 21012G17KT 36/M01 A2978 RMK A01 T03631007  RH  010%=      5-min Rain = 0
KDVS 220005Z 22017KT 36/M01 A2978 RMK A01 T03621010  RH  010%=      5-min Rain = 0
KDVS 220010Z 22016G21KT 36/M01 A2978 RMK A01 T03601009  RH  010%=      5-min Rain = 0
KDVS 220015Z 22018KT 36/M01 A2978 RMK A01 T03591010  RH  010%=      5-min Rain = 0
KDVS 220020Z 21016KT 36/M01 A2978 RMK A01 T03581010  RH  010%=      5-min Rain = 0
KDVS 220025Z 20016G21KT 36/M01 A2978 RMK A01 T03571009  RH  010%=      5-min Rain = 0
KDVS 220030Z 22015G20KT 36/M01 A2978 RMK A01 T03561007  RH  010%=      5-min Rain = 0
KDVS 220035Z 22017G24KT 36/M01 A2978 RMK A01 T03561010  RH  010%=      5-min Rain = 0
KDVS 220040Z 23015G20KT 35/M01 A2978 RMK A01 T03541011  RH  010%=      5-min Rain = 0
KDVS 220045Z 23015G20KT 35/M01 A2978 RMK A01 T03531009  RH  010%=      5-min Rain = 0
KDVS 220050Z 23016G21KT 35/M01 A2978 RMK A01 T03521009  RH  010%=      5-min Rain = 0
KDVS 220055Z 23016KT 35/M01 A2978 RMK A01 T03501011  RH  010%=      5-min Rain = 0
KDVS 220100Z 23014KT 35/M01 A2978 RMK A01 T03481010  RH  010%=      5-min Rain = 0
KDVS 220105Z 23012KT 35/M01 A2978 RMK A01 T03471007  RH  011%=      5-min Rain = 0
KDVS 220110Z 23012KT 35/M01 A2978 RMK A01 T03461006  RH  011%=      5-min Rain = 0
KDVS 220115Z 23011KT 34/M00 A2978 RMK A01 T03431004  RH  011%=      5-min Rain = 0
KDVS 220120Z 23011G16KT 34/M01 A2978 RMK A01 T03411005  RH  011%=      5-min Rain = 0
KDVS 220125Z 23011KT 34/M00 A2978 RMK A01 T03391004  RH  011%=      5-min Rain = 0
KDVS 220130Z 23010KT 34/M01 A2978 RMK A01 T03361005  RH  011%=      5-min Rain = 0
KDVS 220135Z 23009KT 33/M00 A2978 RMK A01 T03331004  RH  012%=      5-min Rain = 0
KDVS 220140Z 23010KT 33/M00 A2978 RMK A01 T03291002  RH  012%=      5-min Rain = 0
KDVS 220145Z 23011KT 33/M00 A2979 RMK A01 T03261004  RH  012%=      5-min Rain = 0
KDVS 220150Z 23011KT 33/M01 A2979 RMK A01 T03251007  RH  012%=      5-min Rain = 0
KDVS 220155Z 23010KT 32/M01 A2979 RMK A01 T03201008  RH  012%=      5-min Rain = 0
KDVS 220200Z 22009KT 32/M01 A298 RMK A01 T03171010  RH  012%=      5-min Rain = 0
KDVS 220205Z 22008KT 31/M01 A2981 RMK A01 T03141008  RH  013%=      5-min Rain = 0
KDVS 220210Z 21007KT 31/M01 A2981 RMK A01 T03081006  RH  013%=      5-min Rain = 0
KDVS 220215Z 22008KT 31/M01 A2982 RMK A01 T03051005  RH  014%=      5-min Rain = 0
KDVS 220220Z 22008KT 30/M01 A2982 RMK A01 T03031005  RH  014%=      5-min Rain = 0
KDVS 220225Z 22008KT 30/M01 A2982 RMK A01 T02991005  RH  014%=      5-min Rain = 0
KDVS 220230Z 22009KT 30/M01 A2982 RMK A01 T03011008  RH  014%=      5-min Rain = 0
KDVS 220235Z 22008KT 30/M01 A2982 RMK A01 T03021009  RH  013%=      5-min Rain = 0
KDVS 220240Z 21007KT 30/M01 A2983 RMK A01 T03001008  RH  014%=      5-min Rain = 0
KDVS 220245Z 21005KT 29/01 A2983 RMK A01 T02920008  RH  016%=      5-min Rain = 0
KDVS 220250Z 23008KT 29/M00 A2983 RMK A01 T02871001  RH  016%=      5-min Rain = 0
KDVS 220255Z 23009KT 30/M01 A2983 RMK A01 T02961010  RH  014%=      5-min Rain = 0
KDVS 220300Z 23008KT 29/M01 A2983 RMK A01 T02931007  RH  014%=      5-min Rain = 0
KDVS 220305Z 23007KT 29/00 A2983 RMK A01 T02880001  RH  016%=      5-min Rain = 0
KDVS 220310Z 18010KT 28/02 A2985 RMK A01 T02760024  RH  020%=      5-min Rain = 0
KDVS 220315Z 21009KT 27/04 A2985 RMK A01 T02740037  RH  022%=      5-min Rain = 0
KDVS 220320Z 22006KT 28/03 A2985 RMK A01 T02760034  RH  022%=      5-min Rain = 0
KDVS 220325Z 20008G13KT 28/05 A2986 RMK A01 T02770050  RH  024%=      5-min Rain = 0
KDVS 220330Z 18011G16KT 28/07 A2986 RMK A01 T02840074  RH  027%=      5-min Rain = 0
KDVS 220335Z 18011KT 29/08 A2986 RMK A01 T02870080  RH  028%=      5-min Rain = 0
KDVS 220340Z 18012G18KT 28/08 A2986 RMK A01 T02840083  RH  029%=      5-min Rain = 0
KDVS 220345Z 17014KT 28/08 A2986 RMK A01 T02830084  RH  029%=      5-min Rain = 0
KDVS 220350Z 17014KT 28/09 A2986 RMK A01 T02820085  RH  030%=      5-min Rain = 0
KDVS 220355Z 17013KT 28/09 A2986 RMK A01 T02800085  RH  030%=      5-min Rain = 0
KDVS 220400Z 17012KT 28/09 A2987 RMK A01 T02780087  RH  031%=      5-min Rain = 0
KDVS 220405Z 17012KT 28/09 A2987 RMK A01 T02760090  RH  032%=      5-min Rain = 0
KDVS 220410Z 18012KT 28/09 A2987 RMK A01 T02750094  RH  033%=      5-min Rain = 0
KDVS 220415Z 18012KT 27/10 A2987 RMK A01 T02740103  RH  035%=      5-min Rain = 0
KDVS 220420Z 18012KT 27/12 A2986 RMK A01 T02740116  RH  039%=      5-min Rain = 0
KDVS 220425Z 18011KT 27/13 A2986 RMK A01 T02730131  RH  043%=      5-min Rain = 0
KDVS 220430Z 17016G23KT 27/15 A2986 RMK A01 T02730148  RH  049%=      5-min Rain = 0
KDVS 220435Z 18017G23KT 28/15 A2987 RMK A01 T02750154  RH  050%=      5-min Rain = 0
KDVS 220440Z 18015G23KT 27/16 A2987 RMK A01 T02730155  RH  051%=      5-min Rain = 0
KDVS 220445Z 17015G22KT 27/15 A2987 RMK A01 T02710154  RH  051%=      5-min Rain = 0
KDVS 220450Z 17014KT 27/16 A2987 RMK A01 T02690156  RH  052%=      5-min Rain = 0
KDVS 220455Z 17012KT 27/16 A2987 RMK A01 T02660157  RH  054%=      5-min Rain = 0

Page generated in 0.0093 seconds.